createdAt,value
2023-02-05T00:00:59.687Z,1042.28
2023-02-05T00:01:59.898Z,1042.22
2023-02-05T00:03:00.102Z,1042.22
2023-02-05T00:04:00.229Z,1042.23
2023-02-05T00:05:00.399Z,1042.27
2023-02-05T00:06:00.558Z,1042.26
2023-02-05T00:07:00.764Z,1042.22
2023-02-05T00:08:00.932Z,1042.21
2023-02-05T00:09:01.088Z,1042.16
2023-02-05T00:10:01.247Z,1042.20
2023-02-05T00:11:01.435Z,1042.15
2023-02-05T00:12:01.585Z,1042.17
2023-02-05T00:13:01.753Z,1042.17
2023-02-05T00:14:01.941Z,1042.18
2023-02-05T00:15:02.092Z,1042.17
2023-02-05T00:16:02.282Z,1042.17
2023-02-05T00:17:02.407Z,1042.15
2023-02-05T00:18:02.569Z,1042.20
2023-02-05T00:19:02.743Z,1042.22
2023-02-05T00:20:02.902Z,1042.20
2023-02-05T00:21:03.054Z,1042.23
2023-02-05T00:22:03.252Z,1042.21
2023-02-05T00:23:03.431Z,1042.20
2023-02-05T00:24:03.586Z,1042.19
2023-02-05T00:25:03.752Z,1042.12
2023-02-05T00:26:03.937Z,1042.10
2023-02-05T00:27:04.092Z,1042.06
2023-02-05T00:28:04.365Z,1042.10
2023-02-05T00:29:04.450Z,1042.07
2023-02-05T00:30:04.610Z,1042.08
2023-02-05T00:31:04.851Z,1042.08
2023-02-05T00:32:04.933Z,1042.12
2023-02-05T00:33:05.080Z,1042.11
2023-02-05T00:34:05.304Z,1042.14
2023-02-05T00:35:05.451Z,1042.16
2023-02-05T00:36:05.647Z,1042.17
2023-02-05T00:37:05.802Z,1042.18
2023-02-05T00:38:05.952Z,1042.24
2023-02-05T00:39:06.124Z,1042.23
2023-02-05T00:40:06.295Z,1042.25
2023-02-05T00:41:06.440Z,1042.22
2023-02-05T00:42:06.600Z,1042.21
2023-02-05T00:43:06.759Z,1042.18
2023-02-05T00:44:06.975Z,1042.19
2023-02-05T00:45:07.131Z,1042.23
2023-02-05T00:46:07.367Z,1042.22
2023-02-05T00:47:07.488Z,1042.21
2023-02-05T00:48:07.698Z,1042.18
2023-02-05T00:49:07.868Z,1042.19
2023-02-05T00:50:08.025Z,1042.16
2023-02-05T00:51:08.221Z,1042.18
2023-02-05T00:52:08.376Z,1042.13
2023-02-05T00:53:08.517Z,1042.14
2023-02-05T00:54:08.687Z,1042.15
2023-02-05T00:55:08.837Z,1042.21
2023-02-05T00:56:09.005Z,1042.23
2023-02-05T00:57:09.175Z,1042.24
2023-02-05T00:58:09.340Z,1042.25
2023-02-05T00:59:09.513Z,1042.26
2023-02-05T01:00:09.666Z,1042.22
2023-02-05T01:01:09.837Z,1042.25
2023-02-05T01:02:10.013Z,1042.25
2023-02-05T01:03:10.169Z,1042.28
2023-02-05T01:04:10.336Z,1042.21
2023-02-05T01:05:10.539Z,1042.20
2023-02-05T01:06:10.691Z,1042.16
2023-02-05T01:07:10.848Z,1042.17
2023-02-05T01:08:11.048Z,1042.09
2023-02-05T01:09:11.199Z,1042.06
2023-02-05T01:10:11.360Z,1042.05
2023-02-05T01:11:11.518Z,1042.06
2023-02-05T01:12:11.708Z,1042.03
2023-02-05T01:13:11.879Z,1042.04
2023-02-05T01:14:12.064Z,1042.08
2023-02-05T01:15:12.211Z,1042.07
2023-02-05T01:16:12.455Z,1042.03
2023-02-05T01:17:12.578Z,1042.05
2023-02-05T01:18:12.799Z,1041.98
2023-02-05T01:19:12.978Z,1041.95
2023-02-05T01:20:13.129Z,1041.90
2023-02-05T01:21:13.279Z,1041.88
2023-02-05T01:22:13.479Z,1041.86
2023-02-05T01:23:13.628Z,1041.83
2023-02-05T01:24:13.841Z,1041.87
2023-02-05T01:25:13.990Z,1041.81
2023-02-05T01:26:14.186Z,1041.82
2023-02-05T01:27:14.342Z,1041.84
2023-02-05T01:28:14.562Z,1041.83
2023-02-05T01:29:14.718Z,1041.79
2023-02-05T01:30:14.883Z,1041.77
2023-02-05T01:31:15.138Z,1041.78
2023-02-05T01:32:15.225Z,1041.73
2023-02-05T01:33:15.384Z,1041.70
2023-02-05T01:34:15.589Z,1041.66
2023-02-05T01:35:15.742Z,1041.66
2023-02-05T01:36:15.936Z,1041.65
2023-02-05T01:37:16.095Z,1041.67
2023-02-05T01:38:16.287Z,1041.70
2023-02-05T01:39:16.457Z,1041.66
2023-02-05T01:40:16.617Z,1041.71
2023-02-05T01:41:16.763Z,1041.74
2023-02-05T01:42:16.959Z,1041.68
2023-02-05T01:43:17.146Z,1041.73
2023-02-05T01:44:17.292Z,1041.70
2023-02-05T01:45:17.450Z,1041.68
2023-02-05T01:46:17.661Z,1041.61
2023-02-05T01:47:17.810Z,1041.56
2023-02-05T01:48:17.979Z,1041.57
2023-02-05T01:49:18.149Z,1041.54
2023-02-05T01:50:18.318Z,1041.47
2023-02-05T01:51:18.478Z,1041.51
2023-02-05T01:52:18.639Z,1041.48
2023-02-05T01:53:18.789Z,1041.43
2023-02-05T01:54:18.997Z,1041.42
2023-02-05T01:55:19.156Z,1041.39
2023-02-05T01:56:19.354Z,1041.39
2023-02-05T01:57:19.510Z,1041.42
2023-02-05T01:58:19.701Z,1041.39
2023-02-05T01:59:19.886Z,1041.42
2023-02-05T02:00:20.066Z,1041.41
2023-02-05T02:01:20.248Z,1041.42
2023-02-05T02:02:20.366Z,1041.37
2023-02-05T02:03:20.524Z,1041.36
2023-02-05T02:04:20.731Z,1041.36
2023-02-05T02:05:21.010Z,1041.37
2023-02-05T02:06:21.076Z,1041.32
2023-02-05T02:07:21.240Z,1041.31
2023-02-05T02:08:21.451Z,1041.29
2023-02-05T02:09:21.592Z,1041.27
2023-02-05T02:10:21.783Z,1041.24
2023-02-05T02:11:21.934Z,1041.24
2023-02-05T02:12:22.132Z,1041.23
2023-02-05T02:13:22.302Z,1041.22
2023-02-05T02:14:22.460Z,1041.16
2023-02-05T02:15:22.642Z,1041.19
2023-02-05T02:16:22.831Z,1041.11
2023-02-05T02:17:22.968Z,1041.09
2023-02-05T02:18:23.193Z,1041.11
2023-02-05T02:19:23.341Z,1041.07
2023-02-05T02:20:23.536Z,1041.13
2023-02-05T02:21:23.690Z,1041.12
2023-02-05T02:22:23.893Z,1041.08
2023-02-05T02:23:24.053Z,1041.08
2023-02-05T02:24:24.211Z,1041.06
2023-02-05T02:25:24.400Z,1041.04
2023-02-05T02:26:24.609Z,1041.03
2023-02-05T02:27:24.761Z,1041.01
2023-02-05T02:28:24.932Z,1040.98
2023-02-05T02:29:25.092Z,1040.95
2023-02-05T02:30:25.332Z,1040.94
2023-02-05T02:31:25.528Z,1040.90
2023-02-05T02:32:25.639Z,1040.90
2023-02-05T02:33:25.827Z,1040.90
2023-02-05T02:34:26.001Z,1040.89
2023-02-05T02:35:26.165Z,1040.85
2023-02-05T02:36:26.351Z,1040.88
2023-02-05T02:37:26.509Z,1040.90
2023-02-05T02:38:26.698Z,1040.87
2023-02-05T02:39:26.908Z,1040.90
2023-02-05T02:40:27.057Z,1040.84
2023-02-05T02:41:27.218Z,1040.83
2023-02-05T02:42:27.408Z,1040.80
2023-02-05T02:43:27.573Z,1040.80
2023-02-05T02:44:27.778Z,1040.82
2023-02-05T02:45:27.939Z,1040.84
2023-02-05T02:46:28.163Z,1040.85
2023-02-05T02:47:28.330Z,1040.86
2023-02-05T02:48:28.525Z,1040.87
2023-02-05T02:49:28.688Z,1040.89
2023-02-05T02:50:28.841Z,1040.93
2023-02-05T02:51:29.002Z,1040.93
2023-02-05T02:52:29.163Z,1040.91
2023-02-05T02:53:29.330Z,1040.88
2023-02-05T02:54:29.536Z,1040.87
2023-02-05T02:55:29.681Z,1040.84
2023-02-05T02:56:29.886Z,1040.83
2023-02-05T02:57:30.033Z,1040.88
2023-02-05T02:58:30.201Z,1040.90
2023-02-05T02:59:30.390Z,1040.85
2023-02-05T03:00:30.590Z,1040.91
2023-02-05T03:01:30.750Z,1040.87
2023-02-05T03:02:30.889Z,1040.86
2023-02-05T03:03:31.094Z,1040.92
2023-02-05T03:04:31.221Z,1040.92
2023-02-05T03:05:31.760Z,1040.83
2023-02-05T03:06:31.575Z,1040.88
2023-02-05T03:07:31.730Z,1040.88
2023-02-05T03:08:31.935Z,1040.89
2023-02-05T03:09:32.116Z,1040.89
2023-02-05T03:10:32.271Z,1040.92
2023-02-05T03:11:32.423Z,1040.95
2023-02-05T03:12:32.605Z,1040.92
2023-02-05T03:13:32.745Z,1040.90
2023-02-05T03:14:32.921Z,1040.92
2023-02-05T03:15:33.319Z,1040.95
2023-02-05T03:16:33.337Z,1041.00
2023-02-05T03:17:33.402Z,1041.01
2023-02-05T03:18:33.601Z,1041.00
2023-02-05T03:19:33.780Z,1041.00
2023-02-05T03:20:33.940Z,1041.03
2023-02-05T03:21:34.090Z,1041.00
2023-02-05T03:22:34.288Z,1040.98
2023-02-05T03:23:34.440Z,1040.95
2023-02-05T03:24:34.670Z,1040.95
2023-02-05T03:25:35.094Z,1040.89
2023-02-05T03:26:34.999Z,1040.90
2023-02-05T03:27:35.140Z,1040.95
2023-02-05T03:28:35.323Z,1040.92
2023-02-05T03:29:35.498Z,1040.86
2023-02-05T03:30:35.668Z,1040.85
2023-02-05T03:31:35.898Z,1040.83
2023-02-05T03:32:36.007Z,1040.75
2023-02-05T03:33:36.164Z,1040.77
2023-02-05T03:34:36.378Z,1040.77
2023-02-05T03:35:36.818Z,1040.73
2023-02-05T03:36:36.713Z,1040.74
2023-02-05T03:37:36.857Z,1040.75
2023-02-05T03:38:37.047Z,1040.79
2023-02-05T03:39:37.229Z,1040.76
2023-02-05T03:40:37.384Z,1040.71
2023-02-05T03:41:37.535Z,1040.73
2023-02-05T03:42:37.726Z,1040.76
2023-02-05T03:43:37.887Z,1040.75
2023-02-05T03:44:38.095Z,1040.72
2023-02-05T03:45:38.282Z,1040.73
2023-02-05T03:46:38.456Z,1040.74
2023-02-05T03:47:38.594Z,1040.70
2023-02-05T03:48:38.779Z,1040.75
2023-02-05T03:49:38.934Z,1040.76
2023-02-05T03:50:39.133Z,1040.76
2023-02-05T03:51:39.283Z,1040.76
2023-02-05T03:52:39.481Z,1040.79
2023-02-05T03:53:39.662Z,1040.73
2023-02-05T03:54:39.884Z,1040.78
2023-02-05T03:55:40.039Z,1040.78
2023-02-05T03:56:40.206Z,1040.79
2023-02-05T03:57:40.370Z,1040.82
2023-02-05T03:58:40.557Z,1040.84
2023-02-05T03:59:40.759Z,1040.88
2023-02-05T04:00:40.887Z,1040.86
2023-02-05T04:01:41.036Z,1040.85
2023-02-05T04:02:41.238Z,1040.87
2023-02-05T04:03:41.388Z,1040.87
2023-02-05T04:04:41.595Z,1040.85
2023-02-05T04:05:41.759Z,1040.86
2023-02-05T04:06:41.916Z,1040.88
2023-02-05T04:07:42.073Z,1040.86
2023-02-05T04:08:42.274Z,1040.88
2023-02-05T04:09:42.433Z,1040.86
2023-02-05T04:10:42.593Z,1040.86
2023-02-05T04:11:42.753Z,1040.79
2023-02-05T04:12:42.912Z,1040.79
2023-02-05T04:13:43.070Z,1040.81
2023-02-05T04:14:43.282Z,1040.88
2023-02-05T04:15:43.436Z,1040.88
2023-02-05T04:16:43.649Z,1040.86
2023-02-05T04:17:43.791Z,1040.86
2023-02-05T04:18:43.987Z,1040.86
2023-02-05T04:19:44.150Z,1040.86
2023-02-05T04:20:44.309Z,1040.86
2023-02-05T04:21:44.471Z,1040.87
2023-02-05T04:22:44.676Z,1040.84
2023-02-05T04:23:44.882Z,1040.86
2023-02-05T04:24:45.029Z,1040.86
2023-02-05T04:25:45.168Z,1040.84
2023-02-05T04:26:45.377Z,1040.86
2023-02-05T04:27:45.532Z,1040.85
2023-02-05T04:28:45.681Z,1040.86
2023-02-05T04:29:45.864Z,1040.87
2023-02-05T04:30:46.044Z,1040.88
2023-02-05T04:31:46.244Z,1040.92
2023-02-05T04:32:46.382Z,1040.88
2023-02-05T04:33:46.578Z,1040.89
2023-02-05T04:34:46.730Z,1040.86
2023-02-05T04:35:46.942Z,1040.90
2023-02-05T04:36:47.094Z,1040.91
2023-02-05T04:37:47.293Z,1040.98
2023-02-05T04:38:47.458Z,1040.99
2023-02-05T04:39:47.610Z,1040.99
2023-02-05T04:40:47.771Z,1040.98
2023-02-05T04:41:47.933Z,1041.00
2023-02-05T04:42:48.104Z,1041.00
2023-02-05T04:43:48.261Z,1040.94
2023-02-05T04:44:48.410Z,1040.93
2023-02-05T04:45:48.642Z,1040.88
2023-02-05T04:46:48.782Z,1040.85
2023-02-05T04:47:48.978Z,1040.88
2023-02-05T04:48:49.154Z,1040.86
2023-02-05T04:49:49.301Z,1040.86
2023-02-05T04:50:49.473Z,1040.82
2023-02-05T04:51:49.631Z,1040.82
2023-02-05T04:52:49.810Z,1040.83
2023-02-05T04:53:49.976Z,1040.81
2023-02-05T04:54:50.121Z,1040.82
2023-02-05T04:55:50.330Z,1040.81
2023-02-05T04:56:50.489Z,1040.79
2023-02-05T04:57:52.576Z,1040.77
2023-02-05T04:58:50.829Z,1040.77
2023-02-05T04:59:50.991Z,1040.74
2023-02-05T05:00:51.178Z,1040.76
2023-02-05T05:01:51.318Z,1040.75
2023-02-05T05:02:51.480Z,1040.73
2023-02-05T05:03:51.656Z,1040.74
2023-02-05T05:04:51.824Z,1040.76
2023-02-05T05:05:52.033Z,1040.77
2023-02-05T05:06:52.179Z,1040.77
2023-02-05T05:07:52.338Z,1040.79
2023-02-05T05:08:52.508Z,1040.74
2023-02-05T05:09:52.711Z,1040.77
2023-02-05T05:10:52.844Z,1040.72
2023-02-05T05:11:53.040Z,1040.77
2023-02-05T05:12:53.227Z,1040.76
2023-02-05T05:13:53.390Z,1040.79
2023-02-05T05:14:53.567Z,1040.74
2023-02-05T05:15:53.773Z,1040.70
2023-02-05T05:16:53.899Z,1040.70
2023-02-05T05:17:54.057Z,1040.72
2023-02-05T05:18:54.205Z,1040.73
2023-02-05T05:19:54.423Z,1040.71
2023-02-05T05:20:54.596Z,1040.68
2023-02-05T05:21:54.766Z,1040.71
2023-02-05T05:22:54.915Z,1040.74
2023-02-05T05:23:55.083Z,1040.72
2023-02-05T05:24:55.236Z,1040.70
2023-02-05T05:25:55.447Z,1040.70
2023-02-05T05:26:55.605Z,1040.71
2023-02-05T05:27:55.823Z,1040.76
2023-02-05T05:28:55.966Z,1040.77
2023-02-05T05:29:56.166Z,1040.79
2023-02-05T05:30:56.318Z,1040.80
2023-02-05T05:31:56.476Z,1040.84
2023-02-05T05:32:56.627Z,1040.83
2023-02-05T05:33:56.784Z,1040.85
2023-02-05T05:34:56.980Z,1040.87
2023-02-05T05:35:57.124Z,1040.91
2023-02-05T05:36:57.277Z,1040.94
2023-02-05T05:37:57.475Z,1040.98
2023-02-05T05:38:57.638Z,1041.03
2023-02-05T05:39:57.807Z,1040.98
2023-02-05T05:40:57.973Z,1040.98
2023-02-05T05:41:58.124Z,1040.97
2023-02-05T05:42:58.283Z,1040.99
2023-02-05T05:43:58.474Z,1041.03
2023-02-05T05:44:58.673Z,1041.01
2023-02-05T05:45:58.863Z,1041.02
2023-02-05T05:46:59.008Z,1041.02
2023-02-05T05:47:59.203Z,1040.96
2023-02-05T05:48:59.353Z,1040.93
2023-02-05T05:49:59.583Z,1040.94
2023-02-05T05:50:59.724Z,1040.89
2023-02-05T05:51:59.884Z,1040.89
2023-02-05T05:53:00.034Z,1040.87
2023-02-05T05:54:00.234Z,1040.90
2023-02-05T05:55:00.394Z,1040.88
2023-02-05T05:56:00.579Z,1040.85
2023-02-05T05:57:00.740Z,1040.83
2023-02-05T05:58:00.928Z,1040.83
2023-02-05T05:59:01.093Z,1040.83
2023-02-05T06:00:01.282Z,1040.84
2023-02-05T06:01:01.471Z,1040.81
2023-02-05T06:02:01.607Z,1040.83
2023-02-05T06:03:01.779Z,1040.80
2023-02-05T06:04:04.157Z,1040.83
2023-02-05T06:05:02.123Z,1040.85
2023-02-05T06:06:02.336Z,1040.84
2023-02-05T06:07:02.510Z,1040.83
2023-02-05T06:08:02.669Z,1040.78
2023-02-05T06:09:02.848Z,1040.84
2023-02-05T06:10:03.001Z,1040.83
2023-02-05T06:11:03.164Z,1040.85
2023-02-05T06:12:03.334Z,1040.84
2023-02-05T06:13:03.493Z,1040.77
2023-02-05T06:14:03.678Z,1040.80
2023-02-05T06:15:03.819Z,1040.76
2023-02-05T06:16:04.191Z,1040.69
2023-02-05T06:17:04.191Z,1040.69
2023-02-05T06:18:04.379Z,1040.67
2023-02-05T06:19:04.539Z,1040.69
2023-02-05T06:20:04.736Z,1040.70
2023-02-05T06:21:04.877Z,1040.73
2023-02-05T06:22:05.064Z,1040.70
2023-02-05T06:23:05.231Z,1040.71
2023-02-05T06:24:05.414Z,1040.66
2023-02-05T06:25:05.579Z,1040.70
2023-02-05T06:26:05.808Z,1040.69
2023-02-05T06:27:05.963Z,1040.64
2023-02-05T06:28:06.131Z,1040.68
2023-02-05T06:29:06.309Z,1040.67
2023-02-05T06:30:06.502Z,1040.69
2023-02-05T06:31:06.763Z,1040.72
2023-02-05T06:32:06.849Z,1040.76
2023-02-05T06:33:06.997Z,1040.78
2023-02-05T06:34:07.171Z,1040.79
2023-02-05T06:35:07.355Z,1040.79
2023-02-05T06:36:07.529Z,1040.84
2023-02-05T06:37:07.709Z,1040.83
2023-02-05T06:38:07.905Z,1040.86
2023-02-05T06:39:08.078Z,1040.83
2023-02-05T06:40:08.290Z,1040.84
2023-02-05T06:41:08.447Z,1040.83
2023-02-05T06:42:08.593Z,1040.82
2023-02-05T06:43:08.796Z,1040.81
2023-02-05T06:44:08.967Z,1040.84
2023-02-05T06:45:09.153Z,1040.86
2023-02-05T06:46:09.431Z,1040.83
2023-02-05T06:47:09.518Z,1040.86
2023-02-05T06:48:09.707Z,1040.84
2023-02-05T06:49:09.896Z,1040.84
2023-02-05T06:50:10.104Z,1040.82
2023-02-05T06:51:10.257Z,1040.84
2023-02-05T06:52:10.427Z,1040.86
2023-02-05T06:53:11.903Z,1040.91
2023-02-05T06:54:10.787Z,1040.94
2023-02-05T06:55:10.976Z,1040.87
2023-02-05T06:56:11.186Z,1040.90
2023-02-05T06:57:11.291Z,1040.92
2023-02-05T06:58:11.475Z,1040.91
2023-02-05T06:59:11.660Z,1040.90
2023-02-05T07:00:11.846Z,1040.87
2023-02-05T07:01:12.048Z,1040.89
2023-02-05T07:02:12.227Z,1040.87
2023-02-05T07:03:12.388Z,1040.87
2023-02-05T07:04:12.546Z,1040.89
2023-02-05T07:05:12.746Z,1040.88
2023-02-05T07:06:12.947Z,1040.86
2023-02-05T07:07:13.056Z,1040.88
2023-02-05T07:08:13.266Z,1040.84
2023-02-05T07:09:13.398Z,1040.84
2023-02-05T07:10:13.603Z,1040.83
2023-02-05T07:11:13.777Z,1040.82
2023-02-05T07:12:13.956Z,1040.82
2023-02-05T07:13:14.138Z,1040.76
2023-02-05T07:14:14.317Z,1040.77
2023-02-05T07:15:14.499Z,1040.75
2023-02-05T07:16:14.743Z,1040.67
2023-02-05T07:17:14.878Z,1040.74
2023-02-05T07:18:15.069Z,1040.69
2023-02-05T07:19:15.248Z,1040.67
2023-02-05T07:20:15.439Z,1040.70
2023-02-05T07:21:15.612Z,1040.64
2023-02-05T07:22:15.788Z,1040.56
2023-02-05T07:23:15.967Z,1040.56
2023-02-05T07:24:16.155Z,1040.51
2023-02-05T07:25:16.337Z,1040.45
2023-02-05T07:26:16.576Z,1040.46
2023-02-05T07:27:16.707Z,1040.47
2023-02-05T07:28:16.964Z,1040.54
2023-02-05T07:29:17.048Z,1040.52
2023-02-05T07:30:17.245Z,1040.50
2023-02-05T07:31:17.576Z,1040.53
2023-02-05T07:32:17.601Z,1040.57
2023-02-05T07:33:17.746Z,1040.49
2023-02-05T07:34:17.907Z,1040.47
2023-02-05T07:35:18.077Z,1040.48
2023-02-05T07:36:18.245Z,1040.49
2023-02-05T07:37:19.978Z,1040.52
2023-02-05T07:38:18.584Z,1040.54
2023-02-05T07:39:18.742Z,1040.53
2023-02-05T07:40:18.902Z,1040.50
2023-02-05T07:41:19.087Z,1040.51
2023-02-05T07:42:19.258Z,1040.51
2023-02-05T07:43:19.416Z,1040.47
2023-02-05T07:44:19.580Z,1040.50
2023-02-05T07:45:19.777Z,1040.48
2023-02-05T07:46:19.965Z,1040.46
2023-02-05T07:47:20.089Z,1040.49
2023-02-05T07:48:20.273Z,1040.49
2023-02-05T07:49:20.447Z,1040.51
2023-02-05T07:50:20.627Z,1040.53
2023-02-05T07:51:20.839Z,1040.55
2023-02-05T07:52:20.968Z,1040.49
2023-02-05T07:53:21.146Z,1040.47
2023-02-05T07:54:21.336Z,1040.45
2023-02-05T07:55:21.527Z,1040.50
2023-02-05T07:56:21.834Z,1040.52
2023-02-05T07:57:21.870Z,1040.51
2023-02-05T07:58:22.056Z,1040.56
2023-02-05T07:59:22.203Z,1040.51
2023-02-05T08:00:22.388Z,1040.48
2023-02-05T08:01:22.627Z,1040.47
2023-02-05T08:02:22.767Z,1040.47
2023-02-05T08:03:23.436Z,1040.45
2023-02-05T08:04:23.151Z,1040.44
2023-02-05T08:05:23.263Z,1040.45
2023-02-05T08:06:23.485Z,1040.46
2023-02-05T08:07:23.610Z,1040.44
2023-02-05T08:08:23.781Z,1040.44
2023-02-05T08:09:23.964Z,1040.33
2023-02-05T08:10:24.162Z,1040.35
2023-02-05T08:11:24.340Z,1040.36
2023-02-05T08:12:24.560Z,1040.32
2023-02-05T08:13:24.705Z,1040.31
2023-02-05T08:14:24.881Z,1040.31
2023-02-05T08:15:25.065Z,1040.33
2023-02-05T08:16:25.311Z,1040.29
2023-02-05T08:17:25.422Z,1040.26
2023-02-05T08:18:25.605Z,1040.29
2023-02-05T08:19:25.783Z,1040.23
2023-02-05T08:20:25.965Z,1040.21
2023-02-05T08:21:26.160Z,1040.21
2023-02-05T08:22:26.314Z,1040.18
2023-02-05T08:23:26.481Z,1040.20
2023-02-05T08:24:26.671Z,1040.23
2023-02-05T08:25:26.841Z,1040.26
2023-02-05T08:26:27.099Z,1040.25
2023-02-05T08:27:29.329Z,1040.24
2023-02-05T08:28:27.361Z,1040.26
2023-02-05T08:29:27.540Z,1040.24
2023-02-05T08:30:27.830Z,1040.25
2023-02-05T08:31:27.956Z,1040.16
2023-02-05T08:32:28.068Z,1040.16
2023-02-05T08:33:28.242Z,1040.21
2023-02-05T08:34:28.432Z,1040.28
2023-02-05T08:35:28.606Z,1040.23
2023-02-05T08:36:28.828Z,1040.21
2023-02-05T08:37:28.951Z,1040.23
2023-02-05T08:38:29.130Z,1040.28
2023-02-05T08:39:29.308Z,1040.36
2023-02-05T08:40:29.488Z,1040.36
2023-02-05T08:41:29.695Z,1040.37
2023-02-05T08:42:29.874Z,1040.34
2023-02-05T08:43:30.039Z,1040.32
2023-02-05T08:44:30.220Z,1040.34
2023-02-05T08:45:30.458Z,1040.26
2023-02-05T08:46:40.327Z,1040.24
2023-02-05T08:47:31.729Z,1040.22
2023-02-05T08:48:30.918Z,1040.19
2023-02-05T08:49:31.121Z,1040.19
2023-02-05T08:50:31.285Z,1040.23
2023-02-05T08:51:31.504Z,1040.27
2023-02-05T08:52:31.658Z,1040.19
2023-02-05T08:53:31.843Z,1040.21
2023-02-05T08:54:32.016Z,1040.23
2023-02-05T08:55:32.490Z,1040.22
2023-02-05T08:56:32.389Z,1040.15
2023-02-05T08:57:32.556Z,1040.16
2023-02-05T08:58:32.726Z,1040.16
2023-02-05T08:59:32.905Z,1040.21
2023-02-05T09:00:33.092Z,1040.19
2023-02-05T09:01:33.356Z,1040.24
2023-02-05T09:02:33.444Z,1040.21
2023-02-05T09:03:33.633Z,1040.21
2023-02-05T09:04:33.829Z,1040.20
2023-02-05T09:05:34.307Z,1040.25
2023-02-05T09:06:34.172Z,1040.20
2023-02-05T09:07:34.315Z,1040.20
2023-02-05T09:08:34.495Z,1040.21
2023-02-05T09:09:34.674Z,1040.15
2023-02-05T09:10:34.854Z,1040.18
2023-02-05T09:11:35.055Z,1040.19
2023-02-05T09:12:35.213Z,1040.22
2023-02-05T09:13:35.405Z,1040.19
2023-02-05T09:14:35.574Z,1040.22
2023-02-05T09:15:36.166Z,1040.23
2023-02-05T09:16:35.993Z,1040.26
2023-02-05T09:17:36.074Z,1040.21
2023-02-05T09:18:36.252Z,1040.19
2023-02-05T09:19:36.433Z,1040.16
2023-02-05T09:20:36.631Z,1040.14
2023-02-05T09:21:36.845Z,1040.11
2023-02-05T09:22:36.972Z,1040.12
2023-02-05T09:23:37.153Z,1040.12
2023-02-05T09:24:37.325Z,1040.11
2023-02-05T09:25:37.513Z,1040.18
2023-02-05T09:26:37.704Z,1040.15
2023-02-05T09:27:37.894Z,1040.20
2023-02-05T09:28:38.069Z,1040.23
2023-02-05T09:29:38.246Z,1040.20
2023-02-05T09:30:38.542Z,1040.21
2023-02-05T09:31:38.749Z,1040.18
2023-02-05T09:32:38.780Z,1040.18
2023-02-05T09:33:38.964Z,1040.09
2023-02-05T09:34:39.147Z,1040.07
2023-02-05T09:35:39.322Z,1040.14
2023-02-05T09:36:39.505Z,1040.13
2023-02-05T09:37:39.708Z,1040.19
2023-02-05T09:38:39.872Z,1040.17
2023-02-05T09:40:41.242Z,1040.20
2023-02-05T09:41:40.441Z,1040.21
2023-02-05T09:42:40.632Z,1040.21
2023-02-05T09:43:40.744Z,1040.22
2023-02-05T09:44:40.925Z,1040.23
2023-02-05T09:45:41.330Z,1040.24
2023-02-05T09:46:41.314Z,1040.24
2023-02-05T09:47:41.453Z,1040.24
2023-02-05T09:48:41.650Z,1040.16
2023-02-05T09:49:41.820Z,1040.15
2023-02-05T09:50:41.984Z,1040.18
2023-02-05T09:51:42.183Z,1040.14
2023-02-05T09:52:42.345Z,1040.14
2023-02-05T09:53:42.551Z,1040.12
2023-02-05T09:54:42.708Z,1040.09
2023-02-05T09:55:42.890Z,1040.09
2023-02-05T09:56:43.078Z,1040.09
2023-02-05T09:57:43.267Z,1040.06
2023-02-05T09:58:43.439Z,1040.05
2023-02-05T09:59:43.610Z,1040.00
2023-02-05T10:00:43.792Z,1040.02
2023-02-05T10:01:44.017Z,1039.99
2023-02-05T10:02:44.143Z,1040.03
2023-02-05T10:03:44.316Z,1040.07
2023-02-05T10:04:44.509Z,1040.04
2023-02-05T10:05:44.677Z,1040.07
2023-02-05T10:06:44.879Z,1040.04
2023-02-05T10:07:45.019Z,1039.98
2023-02-05T10:08:45.202Z,1039.95
2023-02-05T10:09:45.397Z,1039.92
2023-02-05T10:10:45.588Z,1039.93
2023-02-05T10:11:45.747Z,1039.91
2023-02-05T10:12:45.894Z,1039.82
2023-02-05T10:13:46.077Z,1039.83
2023-02-05T10:14:48.971Z,1039.87
2023-02-05T10:15:46.447Z,1039.87
2023-02-05T10:16:46.584Z,1039.89
2023-02-05T10:17:46.767Z,1039.86
2023-02-05T10:18:46.963Z,1039.87
2023-02-05T10:19:47.125Z,1039.88
2023-02-05T10:20:47.310Z,1039.81
2023-02-05T10:21:47.509Z,1039.83
2023-02-05T10:22:47.675Z,1039.83
2023-02-05T10:23:47.861Z,1039.82
2023-02-05T10:24:48.033Z,1039.88
2023-02-05T10:25:48.213Z,1039.82
2023-02-05T10:26:48.411Z,1039.81
2023-02-05T10:27:48.597Z,1039.79
2023-02-05T10:28:48.721Z,1039.83
2023-02-05T10:29:48.904Z,1039.80
2023-02-05T10:30:49.195Z,1039.78
2023-02-05T10:31:49.336Z,1039.73
2023-02-05T10:32:49.405Z,1039.74
2023-02-05T10:33:49.588Z,1039.68
2023-02-05T10:34:49.770Z,1039.69
2023-02-05T10:35:49.937Z,1039.64
2023-02-05T10:36:50.175Z,1039.61
2023-02-05T10:37:50.285Z,1039.60
2023-02-05T10:38:50.457Z,1039.56
2023-02-05T10:39:50.635Z,1039.54
2023-02-05T10:40:50.816Z,1039.52
2023-02-05T10:41:51.021Z,1039.54
2023-02-05T10:42:51.196Z,1039.50
2023-02-05T10:43:51.364Z,1039.54
2023-02-05T10:44:51.543Z,1039.53
2023-02-05T10:45:51.732Z,1039.45
2023-02-05T10:46:51.919Z,1039.45
2023-02-05T10:47:52.104Z,1039.42
2023-02-05T10:48:52.281Z,1039.42
2023-02-05T10:49:53.325Z,1039.38
2023-02-05T10:50:52.642Z,1039.37
2023-02-05T10:51:52.839Z,1039.36
2023-02-05T10:52:53.007Z,1039.42
2023-02-05T10:53:53.318Z,1039.32
2023-02-05T10:54:53.341Z,1039.33
2023-02-05T10:55:53.602Z,1039.33
2023-02-05T10:56:53.702Z,1039.35
2023-02-05T10:57:53.880Z,1039.33
2023-02-05T10:58:54.051Z,1039.27
2023-02-05T10:59:54.232Z,1039.30
2023-02-05T11:00:54.402Z,1039.27
2023-02-05T11:01:54.628Z,1039.25
2023-02-05T11:02:54.827Z,1039.21
2023-02-05T11:03:54.939Z,1039.21
2023-02-05T11:04:55.110Z,1039.22
2023-02-05T11:05:55.292Z,1039.23
2023-02-05T11:06:55.482Z,1039.23
2023-02-05T11:07:55.633Z,1039.25
2023-02-05T11:08:55.804Z,1039.27
2023-02-05T11:09:55.984Z,1039.29
2023-02-05T11:10:56.171Z,1039.26
2023-02-05T11:11:56.377Z,1039.29
2023-02-05T11:12:56.512Z,1039.28
2023-02-05T11:13:56.689Z,1039.30
2023-02-05T11:14:56.859Z,1039.36
2023-02-05T11:15:57.072Z,1039.39
2023-02-05T11:16:57.250Z,1039.38
2023-02-05T11:17:57.433Z,1039.31
2023-02-05T11:18:57.624Z,1039.37
2023-02-05T11:19:57.788Z,1039.36
2023-02-05T11:20:57.958Z,1039.35
2023-02-05T11:21:58.159Z,1039.40
2023-02-05T11:22:58.326Z,1039.40
2023-02-05T11:23:58.508Z,1039.44
2023-02-05T11:24:58.678Z,1039.42
2023-02-05T11:25:58.871Z,1039.39
2023-02-05T11:26:59.066Z,1039.39
2023-02-05T11:27:59.287Z,1039.35
2023-02-05T11:28:59.395Z,1039.39
2023-02-05T11:29:59.575Z,1039.34
2023-02-05T11:31:00.245Z,1039.31
2023-02-05T11:32:00.057Z,1039.30
2023-02-05T11:33:00.107Z,1039.31
2023-02-05T11:34:00.267Z,1039.29
2023-02-05T11:35:00.449Z,1039.30
2023-02-05T11:36:00.641Z,1039.21
2023-02-05T11:37:00.826Z,1039.26
2023-02-05T11:38:01.000Z,1039.27
2023-02-05T11:39:01.174Z,1039.25
2023-02-05T11:40:01.354Z,1039.36
2023-02-05T11:41:01.551Z,1039.29
2023-02-05T11:42:01.727Z,1039.34
2023-02-05T11:43:01.894Z,1039.31
2023-02-05T11:44:02.079Z,1039.28
2023-02-05T11:45:02.251Z,1039.31
2023-02-05T11:46:02.426Z,1039.27
2023-02-05T11:47:02.648Z,1039.23
2023-02-05T11:48:02.766Z,1039.26
2023-02-05T11:49:02.947Z,1039.23
2023-02-05T11:50:03.124Z,1039.23
2023-02-05T11:51:03.297Z,1039.24
2023-02-05T11:52:03.493Z,1039.29
2023-02-05T11:53:03.654Z,1039.21
2023-02-05T11:54:03.837Z,1039.18
2023-02-05T11:55:04.017Z,1039.16
2023-02-05T11:56:04.207Z,1039.20
2023-02-05T11:57:04.405Z,1039.18
2023-02-05T11:58:04.575Z,1039.15
2023-02-05T11:59:04.755Z,1039.23
2023-02-05T12:00:04.944Z,1039.25
2023-02-05T12:01:05.129Z,1039.26
2023-02-05T12:02:05.365Z,1039.26
2023-02-05T12:03:05.517Z,1039.33
2023-02-05T12:04:05.670Z,1039.28
2023-02-05T12:05:05.846Z,1039.31
2023-02-05T12:06:06.035Z,1039.31
2023-02-05T12:07:06.245Z,1039.33
2023-02-05T12:08:08.874Z,1039.30
2023-02-05T12:09:06.556Z,1039.24